Sun, 14 Jul 2024 18:24:15 CEST | login

Information for RPM lzo-2.06-8.el7.x86_64.rpm

ID698
Namelzo
Version2.06
Release8.el7
Epoch
Archx86_64
SummaryData compression library with very fast (de)compression
DescriptionLZO is a portable lossless data compression library written in ANSI C. It offers pretty fast compression and very fast decompression. Decompression requires no memory. In addition there are slower compression levels achieving a quite competitive compression ratio while still decompressing at this very high speed.
Build Time2015-11-20 07:26:41 GMT
Size59,628
fb57116a5f1f0e494abb8db7e7bfb249
LicenseGPLv2+
Provides
liblzo2.so.2()(64bit)
lzo = 2.06-8.el7
lzo(x86-64) = 2.06-8.el7
Obsoletes No Obsoletes
Conflicts No Conflicts
Requires
/sbin/ldconfig
/sbin/ldconfig
libc.so.6()(64bit)
libc.so.6(GLIBC_2.14)(64bit)
libc.so.6(GLIBC_2.2.5)(64bit)
libc.so.6(GLIBC_2.4)(64bit)
rpmlib(CompressedFileNames) <= 3.0.4-1
rpmlib(FileDigests) <= 4.6.0-1
rpmlib(PayloadFilesHavePrefix) <= 4.0-1
rpmlib(PayloadIsXz) <= 5.2-1
rtld(GNU_HASH)
Recommends No Recommends
Suggests No Suggests
Supplements No Supplements
Enhances No Enhances
Files
1 through 7 of 7
Name ascending sort Size
/usr/lib64/liblzo2.so.216
/usr/lib64/liblzo2.so.2.0.0135,112
/usr/share/doc/lzo-2.064,096
/usr/share/doc/lzo-2.06/AUTHORS112
/usr/share/doc/lzo-2.06/COPYING18,092
/usr/share/doc/lzo-2.06/NEWS11,354
/usr/share/doc/lzo-2.06/THANKS690
Component of
Page:
1 through 50 of 1075 >>>
Buildroot descending sort Created State
v8.3-ci-6854-16469 2024-07-08 11:48:26 expired
v8.3-ci-6852-16434 2024-07-05 17:54:52 expired
v8.3-lab-6840-16385 2024-07-03 00:23:58 expired
v8.3-incoming-6802-16034 2024-06-21 11:56:58 expired
v8.3-incoming-6798-16034 2024-06-21 09:30:56 expired
v8.3-incoming-6789-15909 2024-06-20 18:13:57 expired
v8.3-incoming-6766-15731 2024-06-19 17:44:07 expired
v8.3-incoming-6760-15699 2024-06-19 17:34:30 expired
v8.3-incoming-6749-15639 2024-06-19 17:15:00 expired
v8.3-incoming-6741-15572 2024-06-19 16:49:00 expired
v8.3-incoming-6734-15555 2024-06-19 16:38:12 expired
v8.3-incoming-6730-15522 2024-06-19 16:04:25 expired
v8.3-incoming-6726-15522 2024-06-19 15:47:25 expired
v8.3-incoming-6721-15505 2024-06-19 15:24:46 expired
v8.3-incoming-6717-15471 2024-06-19 13:50:51 expired
v8.2-incoming-6648-14897 2024-06-11 17:20:11 expired
v8.2-incoming-6646-14763 2024-06-11 17:06:09 expired
v8.3-incoming-6621-14794 2024-06-07 19:26:31 expired
v8.2-incoming-6615-14738 2024-06-06 18:26:33 expired
v8.2-incoming-6613-14725 2024-06-06 18:20:10 expired
v8.2-incoming-6611-14712 2024-06-06 18:14:21 expired
v8.2-incoming-6609-14700 2024-06-06 18:08:16 expired
v8.2-incoming-6607-14687 2024-06-06 18:02:29 expired
v8.2-incoming-6605-14674 2024-06-06 17:53:52 expired
v8.2-incoming-6603-14662 2024-06-06 17:47:16 expired
v8.2-incoming-6601-14650 2024-06-06 17:37:05 expired
v8.2-incoming-6599-14637 2024-06-06 17:28:39 expired
v8.2-incoming-6597-14624 2024-06-06 17:21:01 expired
v8.2-incoming-6595-14612 2024-06-06 17:15:14 expired
v8.2-incoming-6593-14599 2024-06-06 17:09:27 expired
v8.2-incoming-6591-14586 2024-06-06 17:03:26 expired
v8.2-incoming-6589-14574 2024-06-06 16:57:25 expired
v8.2-incoming-6587-14561 2024-06-06 16:51:39 expired
v8.2-incoming-6585-14552 2024-06-06 16:46:07 expired
v8.2-incoming-6582-14535 2024-06-06 16:02:37 expired
v8.2-incoming-6580-14523 2024-06-06 15:57:06 expired
v8.2-incoming-6578-14510 2024-06-06 15:51:22 expired
v8.2-incoming-6576-14498 2024-06-06 15:45:22 expired
v8.2-incoming-6574-14485 2024-06-06 15:38:36 expired
v8.2-incoming-6572-14472 2024-06-06 15:32:06 expired
v8.2-incoming-6570-14460 2024-06-06 15:26:38 expired
v8.2-incoming-6568-14457 2024-06-06 15:07:17 expired
v8.3-u-tescande1-6556-14325 2024-06-04 15:29:43 expired
v8.3-u-tescande1-6554-14322 2024-06-04 15:09:38 expired
v8.3-u-tescande1-6548-14320 2024-06-04 13:39:24 expired
v8.2-incoming-6538-14285 2024-06-03 15:58:09 expired
v8.2-incoming-6536-14285 2024-06-03 15:22:00 expired
v8.3-incoming-6534-14268 2024-06-03 11:55:58 expired
v8.3-incoming-6522-14268 2024-05-31 14:24:43 expired
v8.3-u-tescande1-6494-14114 2024-05-24 10:11:57 expired